sensor_id;sensor_type;location;lat;lon;timestamp;temperature;humidity
28845;DHT22;15976;47.938;7.758;2023-04-28T00:02:02;16.80;56.00
28845;DHT22;15976;47.938;7.758;2023-04-28T00:04:29;16.80;56.00
28845;DHT22;15976;47.938;7.758;2023-04-28T00:06:56;16.80;56.10
28845;DHT22;15976;47.938;7.758;2023-04-28T00:09:23;16.80;56.10
28845;DHT22;15976;47.938;7.758;2023-04-28T00:11:50;16.80;55.90
28845;DHT22;15976;47.938;7.758;2023-04-28T00:14:17;16.80;55.90
28845;DHT22;15976;47.938;7.758;2023-04-28T00:16:44;16.80;55.90
28845;DHT22;15976;47.938;7.758;2023-04-28T00:19:12;16.70;56.00
28845;DHT22;15976;47.938;7.758;2023-04-28T00:21:39;16.80;56.30
28845;DHT22;15976;47.938;7.758;2023-04-28T00:24:06;16.70;56.30
28845;DHT22;15976;47.938;7.758;2023-04-28T00:26:33;16.70;56.30
28845;DHT22;15976;47.938;7.758;2023-04-28T00:29:00;16.60;56.30
28845;DHT22;15976;47.938;7.758;2023-04-28T00:31:27;16.60;56.30
28845;DHT22;15976;47.938;7.758;2023-04-28T00:33:54;16.60;56.40
28845;DHT22;15976;47.938;7.758;2023-04-28T00:36:21;16.60;56.60
28845;DHT22;15976;47.938;7.758;2023-04-28T00:38:48;16.60;56.70
28845;DHT22;15976;47.938;7.758;2023-04-28T00:41:15;16.60;56.90
28845;DHT22;15976;47.938;7.758;2023-04-28T00:43:46;16.60;57.10
28845;DHT22;15976;47.938;7.758;2023-04-28T00:46:23;16.50;57.20
28845;DHT22;15976;47.938;7.758;2023-04-28T00:48:51;16.50;57.50
28845;DHT22;15976;47.938;7.758;2023-04-28T00:51:19;16.50;57.90
28845;DHT22;15976;47.938;7.758;2023-04-28T00:53:47;16.50;57.90
28845;DHT22;15976;47.938;7.758;2023-04-28T00:56:14;16.50;58.50
28845;DHT22;15976;47.938;7.758;2023-04-28T00:58:44;16.40;58.80
28845;DHT22;15976;47.938;7.758;2023-04-28T01:01:11;16.50;59.10
28845;DHT22;15976;47.938;7.758;2023-04-28T01:03:39;16.40;59.10
28845;DHT22;15976;47.938;7.758;2023-04-28T01:06:09;16.30;59.30
28845;DHT22;15976;47.938;7.758;2023-04-28T01:08:38;16.40;59.50
28845;DHT22;15976;47.938;7.758;2023-04-28T01:11:11;16.30;60.00
28845;DHT22;15976;47.938;7.758;2023-04-28T01:14:00;16.30;60.90
28845;DHT22;15976;47.938;7.758;2023-04-28T01:16:31;16.30;61.40
28845;DHT22;15976;47.938;7.758;2023-04-28T01:18:59;16.20;62.00
28845;DHT22;15976;47.938;7.758;2023-04-28T01:21:32;16.10;62.70
28845;DHT22;15976;47.938;7.758;2023-04-28T01:24:08;16.00;63.40
28845;DHT22;15976;47.938;7.758;2023-04-28T01:26:35;15.90;63.80
28845;DHT22;15976;47.938;7.758;2023-04-28T01:29:02;15.70;64.00
28845;DHT22;15976;47.938;7.758;2023-04-28T01:31:29;15.60;64.70
28845;DHT22;15976;47.938;7.758;2023-04-28T01:33:57;15.60;65.50
28845;DHT22;15976;47.938;7.758;2023-04-28T01:36:24;15.60;66.20
28845;DHT22;15976;47.938;7.758;2023-04-28T01:38:53;15.60;66.20
28845;DHT22;15976;47.938;7.758;2023-04-28T01:41:20;15.60;66.40
28845;DHT22;15976;47.938;7.758;2023-04-28T01:43:48;15.70;66.80
28845;DHT22;15976;47.938;7.758;2023-04-28T01:46:15;15.70;66.90
28845;DHT22;15976;47.938;7.758;2023-04-28T01:48:42;15.60;66.60
28845;DHT22;15976;47.938;7.758;2023-04-28T01:51:11;15.50;67.10
28845;DHT22;15976;47.938;7.758;2023-04-28T01:53:38;15.30;67.30
28845;DHT22;15976;47.938;7.758;2023-04-28T01:56:05;15.10;68.00
28845;DHT22;15976;47.938;7.758;2023-04-28T01:58:39;14.90;69.70
28845;DHT22;15976;47.938;7.758;2023-04-28T02:01:09;14.70;71.30
28845;DHT22;15976;47.938;7.758;2023-04-28T02:03:37;14.60;72.70
28845;DHT22;15976;47.938;7.758;2023-04-28T02:06:05;14.50;74.10
28845;DHT22;15976;47.938;7.758;2023-04-28T02:08:32;14.50;75.20
28845;DHT22;15976;47.938;7.758;2023-04-28T02:10:58;14.30;76.10
28845;DHT22;15976;47.938;7.758;2023-04-28T02:13:27;14.10;77.30
28845;DHT22;15976;47.938;7.758;2023-04-28T02:15:54;14.00;78.80
28845;DHT22;15976;47.938;7.758;2023-04-28T02:18:21;13.90;80.40
28845;DHT22;15976;47.938;7.758;2023-04-28T02:20:48;13.90;81.80
28845;DHT22;15976;47.938;7.758;2023-04-28T02:23:16;13.90;82.50
28845;DHT22;15976;47.938;7.758;2023-04-28T02:25:43;13.80;82.60
28845;DHT22;15976;47.938;7.758;2023-04-28T02:28:12;13.70;83.50
28845;DHT22;15976;47.938;7.758;2023-04-28T02:30:39;13.70;84.40
28845;DHT22;15976;47.938;7.758;2023-04-28T02:33:06;13.60;85.50
28845;DHT22;15976;47.938;7.758;2023-04-28T02:35:33;13.60;86.10
28845;DHT22;15976;47.938;7.758;2023-04-28T02:38:00;13.60;86.90
28845;DHT22;15976;47.938;7.758;2023-04-28T02:40:27;13.60;87.40
28845;DHT22;15976;47.938;7.758;2023-04-28T02:42:54;13.60;88.10
28845;DHT22;15976;47.938;7.758;2023-04-28T02:45:21;13.70;89.40
28845;DHT22;15976;47.938;7.758;2023-04-28T02:47:49;13.70;88.70
28845;DHT22;15976;47.938;7.758;2023-04-28T02:50:16;13.70;89.00
28845;DHT22;15976;47.938;7.758;2023-04-28T02:52:44;13.70;89.60
28845;DHT22;15976;47.938;7.758;2023-04-28T02:55:14;13.70;90.00
28845;DHT22;15976;47.938;7.758;2023-04-28T02:57:50;13.80;90.10
28845;DHT22;15976;47.938;7.758;2023-04-28T03:00:17;13.80;90.30
28845;DHT22;15976;47.938;7.758;2023-04-28T03:02:47;13.80;90.60
28845;DHT22;15976;47.938;7.758;2023-04-28T03:05:15;13.80;90.80
28845;DHT22;15976;47.938;7.758;2023-04-28T03:07:42;13.90;90.90
28845;DHT22;15976;47.938;7.758;2023-04-28T03:10:09;13.90;91.00
28845;DHT22;15976;47.938;7.758;2023-04-28T03:12:37;14.00;91.30
28845;DHT22;15976;47.938;7.758;2023-04-28T03:15:05;14.00;91.40
28845;DHT22;15976;47.938;7.758;2023-04-28T03:17:36;14.10;91.40
28845;DHT22;15976;47.938;7.758;2023-04-28T03:20:08;14.10;91.60
28845;DHT22;15976;47.938;7.758;2023-04-28T03:22:36;14.10;91.70
28845;DHT22;15976;47.938;7.758;2023-04-28T03:25:04;14.10;91.70
28845;DHT22;15976;47.938;7.758;2023-04-28T03:27:36;14.10;91.90
28845;DHT22;15976;47.938;7.758;2023-04-28T03:30:05;14.10;92.00
28845;DHT22;15976;47.938;7.758;2023-04-28T03:32:32;14.10;92.20
28845;DHT22;15976;47.938;7.758;2023-04-28T03:34:59;14.00;92.60
28845;DHT22;15976;47.938;7.758;2023-04-28T03:37:27;14.00;92.80
28845;DHT22;15976;47.938;7.758;2023-04-28T03:39:54;14.00;93.00
28845;DHT22;15976;47.938;7.758;2023-04-28T03:42:21;14.00;93.00
28845;DHT22;15976;47.938;7.758;2023-04-28T03:45:08;14.00;93.20
28845;DHT22;15976;47.938;7.758;2023-04-28T03:47:35;13.90;93.50
28845;DHT22;15976;47.938;7.758;2023-04-28T03:50:02;13.90;93.60
28845;DHT22;15976;47.938;7.758;2023-04-28T03:52:30;13.90;93.80
28845;DHT22;15976;47.938;7.758;2023-04-28T03:54:57;13.90;93.80
28845;DHT22;15976;47.938;7.758;2023-04-28T03:57:24;13.90;94.00
28845;DHT22;15976;47.938;7.758;2023-04-28T03:59:51;13.80;94.10
28845;DHT22;15976;47.938;7.758;2023-04-28T04:02:18;13.80;94.30
28845;DHT22;15976;47.938;7.758;2023-04-28T04:04:45;13.70;94.30
28845;DHT22;15976;47.938;7.758;2023-04-28T04:07:13;13.70;94.50
28845;DHT22;15976;47.938;7.758;2023-04-28T04:09:40;13.70;94.70
28845;DHT22;15976;47.938;7.758;2023-04-28T04:12:08;13.70;94.80
28845;DHT22;15976;47.938;7.758;2023-04-28T04:14:35;13.80;94.80
28845;DHT22;15976;47.938;7.758;2023-04-28T04:17:03;13.70;94.80
28845;DHT22;15976;47.938;7.758;2023-04-28T04:19:31;13.70;94.90
28845;DHT22;15976;47.938;7.758;2023-04-28T04:21:58;13.60;95.00
28845;DHT22;15976;47.938;7.758;2023-04-28T04:24:25;13.70;95.10
28845;DHT22;15976;47.938;7.758;2023-04-28T04:26:53;13.70;95.20
28845;DHT22;15976;47.938;7.758;2023-04-28T04:29:27;13.80;95.30
28845;DHT22;15976;47.938;7.758;2023-04-28T04:31:55;13.70;95.30
28845;DHT22;15976;47.938;7.758;2023-04-28T04:34:22;13.70;95.20
28845;DHT22;15976;47.938;7.758;2023-04-28T04:36:49;13.60;95.30
28845;DHT22;15976;47.938;7.758;2023-04-28T04:39:17;13.60;95.30
28845;DHT22;15976;47.938;7.758;2023-04-28T04:41:44;13.60;95.50
28845;DHT22;15976;47.938;7.758;2023-04-28T04:44:30;13.60;95.60
28845;DHT22;15976;47.938;7.758;2023-04-28T04:46:59;13.60;95.70
28845;DHT22;15976;47.938;7.758;2023-04-28T04:49:27;13.60;95.80
28845;DHT22;15976;47.938;7.758;2023-04-28T04:51:55;13.70;95.80
28845;DHT22;15976;47.938;7.758;2023-04-28T04:54:23;13.70;95.90
28845;DHT22;15976;47.938;7.758;2023-04-28T04:56:50;13.70;96.00
28845;DHT22;15976;47.938;7.758;2023-04-28T04:59:29;13.70;96.00
28845;DHT22;15976;47.938;7.758;2023-04-28T05:02:06;13.70;96.10
28845;DHT22;15976;47.938;7.758;2023-04-28T05:04:33;13.60;96.10
28845;DHT22;15976;47.938;7.758;2023-04-28T05:07:00;13.70;96.30
28845;DHT22;15976;47.938;7.758;2023-04-28T05:09:28;13.70;96.40
28845;DHT22;15976;47.938;7.758;2023-04-28T05:11:56;13.70;96.40
28845;DHT22;15976;47.938;7.758;2023-04-28T05:14:23;13.70;96.40
28845;DHT22;15976;47.938;7.758;2023-04-28T05:16:51;13.70;96.40
28845;DHT22;15976;47.938;7.758;2023-04-28T05:19:23;13.70;96.50
28845;DHT22;15976;47.938;7.758;2023-04-28T05:21:50;13.80;96.50
28845;DHT22;15976;47.938;7.758;2023-04-28T05:24:21;13.80;96.50
28845;DHT22;15976;47.938;7.758;2023-04-28T05:26:51;13.80;96.50
28845;DHT22;15976;47.938;7.758;2023-04-28T05:29:20;13.70;96.60
28845;DHT22;15976;47.938;7.758;2023-04-28T05:31:47;13.80;96.70
28845;DHT22;15976;47.938;7.758;2023-04-28T05:34:15;13.80;96.70
28845;DHT22;15976;47.938;7.758;2023-04-28T05:36:43;13.70;96.70
28845;DHT22;15976;47.938;7.758;2023-04-28T05:39:12;13.80;96.80
28845;DHT22;15976;47.938;7.758;2023-04-28T05:41:40;13.80;96.90
28845;DHT22;15976;47.938;7.758;2023-04-28T05:44:09;13.80;96.80
28845;DHT22;15976;47.938;7.758;2023-04-28T05:46:36;13.80;96.90
28845;DHT22;15976;47.938;7.758;2023-04-28T05:49:05;13.80;96.90
28845;DHT22;15976;47.938;7.758;2023-04-28T05:51:36;13.80;96.90
28845;DHT22;15976;47.938;7.758;2023-04-28T05:54:03;13.80;97.10
28845;DHT22;15976;47.938;7.758;2023-04-28T05:56:36;13.80;97.10
28845;DHT22;15976;47.938;7.758;2023-04-28T05:59:04;13.80;97.10
28845;DHT22;15976;47.938;7.758;2023-04-28T06:01:31;13.80;97.20
28845;DHT22;15976;47.938;7.758;2023-04-28T06:03:58;13.80;97.20
28845;DHT22;15976;47.938;7.758;2023-04-28T06:06:26;13.90;97.20
28845;DHT22;15976;47.938;7.758;2023-04-28T06:08:53;13.90;97.20
28845;DHT22;15976;47.938;7.758;2023-04-28T06:11:20;13.80;97.30
28845;DHT22;15976;47.938;7.758;2023-04-28T06:13:49;13.90;97.30
28845;DHT22;15976;47.938;7.758;2023-04-28T06:16:17;13.90;97.30
28845;DHT22;15976;47.938;7.758;2023-04-28T06:18:46;13.80;97.30
28845;DHT22;15976;47.938;7.758;2023-04-28T06:21:15;13.80;97.30
28845;DHT22;15976;47.938;7.758;2023-04-28T06:23:42;13.80;97.30
28845;DHT22;15976;47.938;7.758;2023-04-28T06:26:09;13.80;97.50
28845;DHT22;15976;47.938;7.758;2023-04-28T06:28:38;13.80;97.50
28845;DHT22;15976;47.938;7.758;2023-04-28T06:31:07;13.80;97.50
28845;DHT22;15976;47.938;7.758;2023-04-28T06:33:34;13.80;97.60
28845;DHT22;15976;47.938;7.758;2023-04-28T06:36:01;13.80;97.60
28845;DHT22;15976;47.938;7.758;2023-04-28T06:38:29;13.80;97.60
28845;DHT22;15976;47.938;7.758;2023-04-28T06:40:56;13.80;97.60
28845;DHT22;15976;47.938;7.758;2023-04-28T06:43:23;13.80;97.60
28845;DHT22;15976;47.938;7.758;2023-04-28T06:46:05;13.80;97.60
28845;DHT22;15976;47.938;7.758;2023-04-28T06:48:33;13.80;97.60
28845;DHT22;15976;47.938;7.758;2023-04-28T06:51:00;13.70;97.60
28845;DHT22;15976;47.938;7.758;2023-04-28T06:53:27;13.70;97.70
28845;DHT22;15976;47.938;7.758;2023-04-28T06:55:54;13.70;97.70
28845;DHT22;15976;47.938;7.758;2023-04-28T06:58:22;13.70;97.80
28845;DHT22;15976;47.938;7.758;2023-04-28T07:00:49;13.70;97.80
28845;DHT22;15976;47.938;7.758;2023-04-28T07:03:16;13.70;97.90
28845;DHT22;15976;47.938;7.758;2023-04-28T07:05:43;13.70;97.80
28845;DHT22;15976;47.938;7.758;2023-04-28T07:08:10;13.60;97.90
28845;DHT22;15976;47.938;7.758;2023-04-28T07:10:38;13.70;98.00
28845;DHT22;15976;47.938;7.758;2023-04-28T07:13:05;13.70;98.00
28845;DHT22;15976;47.938;7.758;2023-04-28T07:15:33;13.70;97.90
28845;DHT22;15976;47.938;7.758;2023-04-28T07:18:01;13.60;97.90
28845;DHT22;15976;47.938;7.758;2023-04-28T07:20:28;13.60;98.10
28845;DHT22;15976;47.938;7.758;2023-04-28T07:22:56;13.60;98.10
28845;DHT22;15976;47.938;7.758;2023-04-28T07:25:23;13.70;98.30
28845;DHT22;15976;47.938;7.758;2023-04-28T07:27:50;13.70;98.40
28845;DHT22;15976;47.938;7.758;2023-04-28T07:30:17;13.70;98.30
28845;DHT22;15976;47.938;7.758;2023-04-28T07:32:53;13.80;98.50
28845;DHT22;15976;47.938;7.758;2023-04-28T07:35:20;13.80;98.40
28845;DHT22;15976;47.938;7.758;2023-04-28T07:37:48;13.80;98.30
28845;DHT22;15976;47.938;7.758;2023-04-28T07:40:15;13.90;98.50
28845;DHT22;15976;47.938;7.758;2023-04-28T07:42:42;13.90;98.50
28845;DHT22;15976;47.938;7.758;2023-04-28T07:45:10;13.90;98.50
28845;DHT22;15976;47.938;7.758;2023-04-28T07:47:37;13.90;98.50
28845;DHT22;15976;47.938;7.758;2023-04-28T07:50:05;14.00;98.50
28845;DHT22;15976;47.938;7.758;2023-04-28T07:52:33;13.90;98.30
28845;DHT22;15976;47.938;7.758;2023-04-28T07:55:03;13.90;98.50
28845;DHT22;15976;47.938;7.758;2023-04-28T07:57:34;13.90;98.50
28845;DHT22;15976;47.938;7.758;2023-04-28T08:00:05;13.90;98.50
28845;DHT22;15976;47.938;7.758;2023-04-28T08:02:37;14.00;98.70
28845;DHT22;15976;47.938;7.758;2023-04-28T08:05:04;14.00;98.70
28845;DHT22;15976;47.938;7.758;2023-04-28T08:07:34;14.00;98.70
28845;DHT22;15976;47.938;7.758;2023-04-28T08:10:01;14.00;98.60
28845;DHT22;15976;47.938;7.758;2023-04-28T08:12:28;14.10;98.60
28845;DHT22;15976;47.938;7.758;2023-04-28T08:14:56;14.00;98.50
28845;DHT22;15976;47.938;7.758;2023-04-28T08:17:23;14.10;98.60
28845;DHT22;15976;47.938;7.758;2023-04-28T08:19:50;14.10;98.70
28845;DHT22;15976;47.938;7.758;2023-04-28T08:22:17;14.10;98.70
28845;DHT22;15976;47.938;7.758;2023-04-28T08:24:44;14.10;98.60
28845;DHT22;15976;47.938;7.758;2023-04-28T08:27:12;14.10;98.50
28845;DHT22;15976;47.938;7.758;2023-04-28T08:29:39;14.10;98.50
28845;DHT22;15976;47.938;7.758;2023-04-28T08:32:06;14.10;98.70
28845;DHT22;15976;47.938;7.758;2023-04-28T08:34:33;14.10;98.80
28845;DHT22;15976;47.938;7.758;2023-04-28T08:37:00;14.10;98.80
28845;DHT22;15976;47.938;7.758;2023-04-28T08:39:27;14.10;98.70
28845;DHT22;15976;47.938;7.758;2023-04-28T08:42:20;14.10;98.60
28845;DHT22;15976;47.938;7.758;2023-04-28T08:45:42;14.10;98.70
28845;DHT22;15976;47.938;7.758;2023-04-28T08:49:30;14.20;98.90
28845;DHT22;15976;47.938;7.758;2023-04-28T08:52:29;14.20;98.90
28845;DHT22;15976;47.938;7.758;2023-04-28T08:55:05;14.30;98.90
28845;DHT22;15976;47.938;7.758;2023-04-28T08:57:44;14.30;98.90
28845;DHT22;15976;47.938;7.758;2023-04-28T09:00:25;14.30;99.00
28845;DHT22;15976;47.938;7.758;2023-04-28T09:02:56;14.40;99.00
28845;DHT22;15976;47.938;7.758;2023-04-28T09:05:25;14.40;99.20
28845;DHT22;15976;47.938;7.758;2023-04-28T09:07:53;14.60;99.40
28845;DHT22;15976;47.938;7.758;2023-04-28T09:10:23;14.60;99.00
28845;DHT22;15976;47.938;7.758;2023-04-28T09:12:54;14.70;99.10
28845;DHT22;15976;47.938;7.758;2023-04-28T09:18:01;14.60;98.70
28845;DHT22;15976;47.938;7.758;2023-04-28T09:20:31;14.60;98.80
28845;DHT22;15976;47.938;7.758;2023-04-28T09:23:18;14.60;99.00
28845;DHT22;15976;47.938;7.758;2023-04-28T09:26:05;14.70;99.10
28845;DHT22;15976;47.938;7.758;2023-04-28T09:28:35;14.70;98.70
28845;DHT22;15976;47.938;7.758;2023-04-28T09:31:02;14.70;98.80
28845;DHT22;15976;47.938;7.758;2023-04-28T09:33:31;14.70;99.00
28845;DHT22;15976;47.938;7.758;2023-04-28T09:35:58;14.70;98.90
28845;DHT22;15976;47.938;7.758;2023-04-28T09:38:25;14.70;99.00
28845;DHT22;15976;47.938;7.758;2023-04-28T09:40:59;14.80;99.20
28845;DHT22;15976;47.938;7.758;2023-04-28T09:43:35;14.90;99.10
28845;DHT22;15976;47.938;7.758;2023-04-28T09:46:04;14.90;99.10
28845;DHT22;15976;47.938;7.758;2023-04-28T09:48:37;15.00;99.20
28845;DHT22;15976;47.938;7.758;2023-04-28T09:51:05;15.00;99.10
28845;DHT22;15976;47.938;7.758;2023-04-28T09:53:33;15.00;99.10
28845;DHT22;15976;47.938;7.758;2023-04-28T09:56:03;15.10;99.50
28845;DHT22;15976;47.938;7.758;2023-04-28T09:58:33;15.30;99.50
28845;DHT22;15976;47.938;7.758;2023-04-28T10:01:01;15.40;99.50
28845;DHT22;15976;47.938;7.758;2023-04-28T10:03:30;15.50;99.40
28845;DHT22;15976;47.938;7.758;2023-04-28T10:05:58;15.70;99.30
28845;DHT22;15976;47.938;7.758;2023-04-28T10:08:25;15.80;99.10
28845;DHT22;15976;47.938;7.758;2023-04-28T10:10:54;15.80;98.60
28845;DHT22;15976;47.938;7.758;2023-04-28T10:13:23;15.70;98.40
28845;DHT22;15976;47.938;7.758;2023-04-28T10:15:50;15.60;98.50
28845;DHT22;15976;47.938;7.758;2023-04-28T10:18:24;15.60;98.70
28845;DHT22;15976;47.938;7.758;2023-04-28T10:20:59;15.60;98.80
28845;DHT22;15976;47.938;7.758;2023-04-28T10:25:59;15.60;98.80
28845;DHT22;15976;47.938;7.758;2023-04-28T10:28:26;15.50;98.70
28845;DHT22;15976;47.938;7.758;2023-04-28T10:31:10;15.60;98.90
28845;DHT22;15976;47.938;7.758;2023-04-28T10:33:38;15.60;99.00
28845;DHT22;15976;47.938;7.758;2023-04-28T10:36:07;15.60;98.90
28845;DHT22;15976;47.938;7.758;2023-04-28T10:38:34;15.60;99.10
28845;DHT22;15976;47.938;7.758;2023-04-28T10:41:02;15.60;99.20
28845;DHT22;15976;47.938;7.758;2023-04-28T10:43:36;15.70;99.40
28845;DHT22;15976;47.938;7.758;2023-04-28T10:46:06;15.90;99.70
28845;DHT22;15976;47.938;7.758;2023-04-28T10:58:48;16.70;99.00
28845;DHT22;15976;47.938;7.758;2023-04-28T11:01:26;16.90;98.80
28845;DHT22;15976;47.938;7.758;2023-04-28T11:03:58;17.00;98.80
28845;DHT22;15976;47.938;7.758;2023-04-28T11:14:34;17.40;97.80
28845;DHT22;15976;47.938;7.758;2023-04-28T11:17:14;17.40;97.70
28845;DHT22;15976;47.938;7.758;2023-04-28T11:19:45;17.30;97.50
28845;DHT22;15976;47.938;7.758;2023-04-28T11:22:16;17.30;97.90
28845;DHT22;15976;47.938;7.758;2023-04-28T11:25:04;17.40;98.00
28845;DHT22;15976;47.938;7.758;2023-04-28T11:27:32;17.40;98.30
28845;DHT22;15976;47.938;7.758;2023-04-28T11:30:00;17.50;98.20
28845;DHT22;15976;47.938;7.758;2023-04-28T11:32:34;17.70;98.00
28845;DHT22;15976;47.938;7.758;2023-04-28T11:35:01;17.70;98.00
28845;DHT22;15976;47.938;7.758;2023-04-28T11:37:30;17.70;97.90
28845;DHT22;15976;47.938;7.758;2023-04-28T11:39:57;17.70;97.80
28845;DHT22;15976;47.938;7.758;2023-04-28T11:42:24;17.70;97.80
28845;DHT22;15976;47.938;7.758;2023-04-28T11:44:53;17.80;97.70
28845;DHT22;15976;47.938;7.758;2023-04-28T11:47:33;17.80;97.60
28845;DHT22;15976;47.938;7.758;2023-04-28T11:50:00;17.90;97.70
28845;DHT22;15976;47.938;7.758;2023-04-28T11:52:29;18.20;97.90
28845;DHT22;15976;47.938;7.758;2023-04-28T11:54:57;18.50;97.40
28845;DHT22;15976;47.938;7.758;2023-04-28T11:57:29;18.80;97.10
28845;DHT22;15976;47.938;7.758;2023-04-28T12:00:16;19.00;96.60
28845;DHT22;15976;47.938;7.758;2023-04-28T12:02:49;19.30;96.60
28845;DHT22;15976;47.938;7.758;2023-04-28T12:05:25;19.70;96.30
28845;DHT22;15976;47.938;7.758;2023-04-28T12:08:06;19.90;95.20
28845;DHT22;15976;47.938;7.758;2023-04-28T12:10:43;20.00;94.80
28845;DHT22;15976;47.938;7.758;2023-04-28T12:13:42;20.00;95.00
28845;DHT22;15976;47.938;7.758;2023-04-28T12:16:52;20.30;95.60
28845;DHT22;15976;47.938;7.758;2023-04-28T12:20:11;20.90;93.80
28845;DHT22;15976;47.938;7.758;2023-04-28T12:22:56;20.90;93.20
28845;DHT22;15976;47.938;7.758;2023-04-28T12:25:46;20.70;93.20
28845;DHT22;15976;47.938;7.758;2023-04-28T12:28:40;20.60;93.30
28845;DHT22;15976;47.938;7.758;2023-04-28T12:31:13;20.50;93.20
28845;DHT22;15976;47.938;7.758;2023-04-28T12:33:40;20.50;93.30
28845;DHT22;15976;47.938;7.758;2023-04-28T12:36:07;20.60;93.10
28845;DHT22;15976;47.938;7.758;2023-04-28T12:38:35;20.60;92.60
28845;DHT22;15976;47.938;7.758;2023-04-28T12:41:14;20.60;92.20
28845;DHT22;15976;47.938;7.758;2023-04-28T12:43:44;20.50;92.40
28845;DHT22;15976;47.938;7.758;2023-04-28T12:46:12;20.60;92.20
28845;DHT22;15976;47.938;7.758;2023-04-28T12:48:42;20.60;91.80
28845;DHT22;15976;47.938;7.758;2023-04-28T12:51:10;20.50;91.70
28845;DHT22;15976;47.938;7.758;2023-04-28T12:53:39;20.50;91.60
28845;DHT22;15976;47.938;7.758;2023-04-28T12:56:06;20.50;91.50
28845;DHT22;15976;47.938;7.758;2023-04-28T12:58:34;20.50;91.60
28845;DHT22;15976;47.938;7.758;2023-04-28T13:01:01;20.50;90.80
28845;DHT22;15976;47.938;7.758;2023-04-28T13:03:28;20.50;90.60
28845;DHT22;15976;47.938;7.758;2023-04-28T13:05:56;20.50;90.40
28845;DHT22;15976;47.938;7.758;2023-04-28T13:08:22;20.50;90.30
28845;DHT22;15976;47.938;7.758;2023-04-28T13:10:49;20.40;89.80
28845;DHT22;15976;47.938;7.758;2023-04-28T13:13:16;20.60;90.00
28845;DHT22;15976;47.938;7.758;2023-04-28T13:15:43;20.60;90.00
28845;DHT22;15976;47.938;7.758;2023-04-28T13:18:12;20.80;88.90
28845;DHT22;15976;47.938;7.758;2023-04-28T13:20:39;20.90;89.30
28845;DHT22;15976;47.938;7.758;2023-04-28T13:23:07;21.20;89.40
28845;DHT22;15976;47.938;7.758;2023-04-28T13:25:34;21.90;89.10
28845;DHT22;15976;47.938;7.758;2023-04-28T13:28:01;22.60;86.50
28845;DHT22;15976;47.938;7.758;2023-04-28T13:30:28;23.00;85.60
28845;DHT22;15976;47.938;7.758;2023-04-28T13:32:55;24.10;83.60
28845;DHT22;15976;47.938;7.758;2023-04-28T13:35:23;24.80;79.40
28845;DHT22;15976;47.938;7.758;2023-04-28T13:37:50;25.30;76.90
28845;DHT22;15976;47.938;7.758;2023-04-28T13:40:21;25.60;76.00
28845;DHT22;15976;47.938;7.758;2023-04-28T13:42:48;25.60;74.90
28845;DHT22;15976;47.938;7.758;2023-04-28T13:45:15;25.60;74.90
28845;DHT22;15976;47.938;7.758;2023-04-28T13:47:43;25.90;73.80
28845;DHT22;15976;47.938;7.758;2023-04-28T13:50:10;26.00;71.40
28845;DHT22;15976;47.938;7.758;2023-04-28T13:52:37;26.00;68.60
28845;DHT22;15976;47.938;7.758;2023-04-28T13:55:04;25.90;66.90
28845;DHT22;15976;47.938;7.758;2023-04-28T13:57:32;25.60;65.30
28845;DHT22;15976;47.938;7.758;2023-04-28T13:59:59;25.40;64.40
28845;DHT22;15976;47.938;7.758;2023-04-28T14:02:33;25.20;62.90
28845;DHT22;15976;47.938;7.758;2023-04-28T14:05:00;25.00;62.70
28845;DHT22;15976;47.938;7.758;2023-04-28T14:07:27;24.90;61.50
28845;DHT22;15976;47.938;7.758;2023-04-28T14:09:54;24.80;61.20
28845;DHT22;15976;47.938;7.758;2023-04-28T14:12:22;24.70;60.40
28845;DHT22;15976;47.938;7.758;2023-04-28T14:14:53;24.40;60.60
28845;DHT22;15976;47.938;7.758;2023-04-28T14:17:24;24.00;60.80
28845;DHT22;15976;47.938;7.758;2023-04-28T14:19:53;23.50;61.20
28845;DHT22;15976;47.938;7.758;2023-04-28T14:22:22;23.10;61.90
28845;DHT22;15976;47.938;7.758;2023-04-28T14:24:51;22.80;62.70
28845;DHT22;15976;47.938;7.758;2023-04-28T14:27:20;22.40;63.50
28845;DHT22;15976;47.938;7.758;2023-04-28T14:29:49;22.20;63.90
28845;DHT22;15976;47.938;7.758;2023-04-28T14:32:17;22.00;64.30
28845;DHT22;15976;47.938;7.758;2023-04-28T14:34:48;21.80;64.80
28845;DHT22;15976;47.938;7.758;2023-04-28T14:37:17;21.60;65.40
28845;DHT22;15976;47.938;7.758;2023-04-28T14:39:47;21.60;66.00
28845;DHT22;15976;47.938;7.758;2023-04-28T14:42:16;21.40;66.20
28845;DHT22;15976;47.938;7.758;2023-04-28T14:44:47;21.40;66.90
28845;DHT22;15976;47.938;7.758;2023-04-28T14:47:18;21.40;67.70
28845;DHT22;15976;47.938;7.758;2023-04-28T14:49:46;21.70;68.70
28845;DHT22;15976;47.938;7.758;2023-04-28T14:52:14;22.20;68.60
28845;DHT22;15976;47.938;7.758;2023-04-28T14:54:41;22.80;68.40
28845;DHT22;15976;47.938;7.758;2023-04-28T14:57:09;23.30;66.10
28845;DHT22;15976;47.938;7.758;2023-04-28T14:59:38;23.50;64.90
28845;DHT22;15976;47.938;7.758;2023-04-28T15:02:06;23.50;64.40
28845;DHT22;15976;47.938;7.758;2023-04-28T15:04:36;23.30;64.90
28845;DHT22;15976;47.938;7.758;2023-04-28T15:07:05;23.10;64.40
28845;DHT22;15976;47.938;7.758;2023-04-28T15:09:35;22.90;64.50
28845;DHT22;15976;47.938;7.758;2023-04-28T15:12:04;22.60;64.60
28845;DHT22;15976;47.938;7.758;2023-04-28T15:14:32;22.40;64.70
28845;DHT22;15976;47.938;7.758;2023-04-28T15:17:02;22.10;64.80
28845;DHT22;15976;47.938;7.758;2023-04-28T15:19:30;21.90;65.40
28845;DHT22;15976;47.938;7.758;2023-04-28T15:21:59;21.60;65.80
28845;DHT22;15976;47.938;7.758;2023-04-28T15:24:26;21.40;66.30
28845;DHT22;15976;47.938;7.758;2023-04-28T15:26:54;21.30;66.60
28845;DHT22;15976;47.938;7.758;2023-04-28T15:29:23;21.20;66.90
28845;DHT22;15976;47.938;7.758;2023-04-28T15:31:51;21.10;67.40
28845;DHT22;15976;47.938;7.758;2023-04-28T15:34:41;21.00;67.50
28845;DHT22;15976;47.938;7.758;2023-04-28T15:37:42;21.00;67.60
28845;DHT22;15976;47.938;7.758;2023-04-28T15:43:48;20.90;67.60
28845;DHT22;15976;47.938;7.758;2023-04-28T15:46:17;20.80;67.80
28845;DHT22;15976;47.938;7.758;2023-04-28T15:48:49;20.80;68.60
28845;DHT22;15976;47.938;7.758;2023-04-28T15:51:16;20.70;67.50
28845;DHT22;15976;47.938;7.758;2023-04-28T15:53:45;20.60;67.50
28845;DHT22;15976;47.938;7.758;2023-04-28T15:56:19;20.60;67.70
28845;DHT22;15976;47.938;7.758;2023-04-28T15:58:52;20.50;67.80
28845;DHT22;15976;47.938;7.758;2023-04-28T16:01:23;20.50;67.90
28845;DHT22;15976;47.938;7.758;2023-04-28T16:03:51;20.50;68.00
28845;DHT22;15976;47.938;7.758;2023-04-28T16:06:20;20.50;67.60
28845;DHT22;15976;47.938;7.758;2023-04-28T16:08:50;20.50;67.60
28845;DHT22;15976;47.938;7.758;2023-04-28T16:11:18;20.40;67.70
28845;DHT22;15976;47.938;7.758;2023-04-28T16:13:56;20.40;67.80
28845;DHT22;15976;47.938;7.758;2023-04-28T16:16:30;20.30;67.90